Terminal Aerodrome Forecast
Issued by NWS Nashville, TN

Home | Current Version | Previous Version | Text Only | Print | Product List | Glossary On
Versions: 1 2 3 4 5 6 7 8 9 10 11 12 13 14 15 16 17 18 19 20 21 22
000
FTUS44 KOHX 261100
TAFBNA
TAF
KBNA 261138Z 2612/2712 29005KT P6SM SKC
     FM261600 18005KT P6SM SCT120 BKN250
     FM262300 20008KT P6SM -RA BKN050 BKN120
     FM270100 28006KT P6SM -RA OVC025
     FM270500 29009KT 5SM -RASN BR OVC015=

USA.gov is the U.S. government's official web portal to all federal, state and local government web resources and services.